Terminal Aerodrome Forecast
Issued by NWS

Home | Current Version | Previous Version | Graphics & Text | Print | Product List | Glossary On
Versions: 1 2 3 4 5 6 7 8 9 10 11 12 13 14 15 16 17 18
000
FTUS43 KTOP 260751 AAA
TAFMHK
TAF AMD
KMHK 260751Z 2608/2706 34005KT P6SM BKN018
     FM261000 09006KT P6SM BKN018
     FM261300 17009KT P6SM BKN035
     FM261800 17011G19KT P6SM BKN050
     FM270000 17012G21KT P6SM VCTS BKN050CB=

USA.gov is the U.S. government's official web portal to all federal, state and local government web resources and services.